aviador You're here:

PFNO Decoded Metar

in
Report Time2017-03-23 22:58:00
UTC Time2017-03-24 00:01:27
Flight Rules vfr VFR
Wind160° at 03 kt
W.Decomp.*RWY 24: 0.5 kt HW 3 kt LCW
W.Rank160° ranks 23
Current wind is below 160° avg. (7.7)
Visibility9999 m
Phenomena:N/A
Clouds:N/A
Expected CloudBase > 800 ft AGL from Temp-Dew spread
CeilingNone
Temp-18°C
Dew Point-20°C (84% RH)
AAT-22.7°C
QNH1022 hPa
Raw Report
PFNO 232258Z AUTO 16003KT 10SM CLR M18/M20 A3018 RMK AO2 SLP220
T11781200 FZRANO=

Extra information for PFNO:More info

Social comments